Time;durP1;ratioP1;P1;durP2;ratioP2;P2;SDS_P1;SDS_P2;PMS_P1;PMS_P2;Temp;Humidity;BMP_temperature;BMP_pressure;BME280_temperature;BME280_humidity;BME280_pressure;Samples;Min_cycle;Max_cycle;Signal;HPM_P1;HPM_P2
2022/01/31 00:01:50;;;;;;;2.97;0.75;;;4.20;99.90;;;;;;5079447;28;20471;-87
2022/01/31 00:04:16;;;;;;;0.00;0.00;;;4.40;99.90;;;;;;5096538;28;20048;-87
2022/01/31 00:06:47;;;;;;;0.00;0.00;;;4.30;99.90;;;;;;5095929;28;20044;-87
2022/01/31 00:09:15;;;;;;;0.38;0.38;;;4.20;99.90;;;;;;5096699;28;20051;-87
2022/01/31 00:11:44;;;;;;;4.57;1.65;;;4.20;99.90;;;;;;5096316;28;20051;-87
2022/01/31 00:14:21;;;;;;;0.05;0.05;;;4.30;99.90;;;;;;5079100;28;20083;-87
2022/01/31 00:16:47;;;;;;;0.68;0.30;;;4.40;99.90;;;;;;5079224;28;20048;-87
2022/01/31 00:19:12;;;;;;;0.00;0.00;;;4.30;99.90;;;;;;5079187;28;20059;-87
2022/01/31 00:21:38;;;;;;;0.60;0.60;;;4.40;99.90;;;;;;5095570;28;20044;-87
2022/01/31 00:24:04;;;;;;;0.00;0.00;;;4.30;99.90;;;;;;5096039;28;20098;-87
2022/01/31 00:26:29;;;;;;;0.52;0.35;;;4.40;99.90;;;;;;5095820;28;20047;-87
2022/01/31 00:28:55;;;;;;;0.00;0.00;;;4.30;99.90;;;;;;5078424;28;20063;-87
2022/01/31 00:31:21;;;;;;;0.00;0.00;;;4.50;99.90;;;;;;5095732;28;20056;-87
2022/01/31 00:33:47;;;;;;;0.00;0.00;;;4.40;99.90;;;;;;5078730;28;20131;-87
2022/01/31 00:36:12;;;;;;;1.25;0.60;;;4.40;99.90;;;;;;5095680;28;20048;-87
2022/01/31 00:38:38;;;;;;;0.00;0.00;;;4.40;99.90;;;;;;5078486;28;20048;-87
2022/01/31 00:41:04;;;;;;;0.00;0.00;;;4.40;99.90;;;;;;5078614;28;20079;-87
2022/01/31 00:43:30;;;;;;;0.38;0.38;;;4.40;99.90;;;;;;5095302;28;20048;-87
2022/01/31 00:46:01;;;;;;;0.00;0.00;;;4.80;99.90;;;;;;5078162;28;20499;-87
2022/01/31 00:48:33;;;;;;;0.00;0.00;;;4.40;99.90;;;;;;5077635;28;20487;-87
2022/01/31 00:50:59;;;;;;;0.00;0.00;;;4.80;99.90;;;;;;5095609;28;20055;-87
2022/01/31 00:53:25;;;;;;;0.43;0.43;;;4.40;99.90;;;;;;5078457;28;20044;-86
2022/01/31 00:55:50;;;;;;;0.00;0.00;;;4.50;99.90;;;;;;5095405;28;20086;-87
2022/01/31 00:58:16;;;;;;;1.35;0.73;;;4.40;99.90;;;;;;5078766;28;20490;-87
2022/01/31 01:00:42;;;;;;;0.03;0.03;;;4.50;99.90;;;;;;5078633;28;20047;-86
2022/01/31 01:03:07;;;;;;;0.00;0.00;;;4.50;99.90;;;;;;5095344;28;20051;-87
2022/01/31 01:05:33;;;;;;;0.00;0.00;;;4.50;99.90;;;;;;5078436;28;20104;-87
2022/01/31 01:07:59;;;;;;;0.10;0.10;;;4.60;99.90;;;;;;5078513;28;20047;-87
2022/01/31 01:10:25;;;;;;;0.00;0.00;;;4.50;99.90;;;;;;5078243;28;20051;-86
2022/01/31 01:12:50;;;;;;;0.22;0.22;;;4.50;99.90;;;;;;5078294;28;20059;-87
2022/01/31 01:15:16;;;;;;;0.00;0.00;;;4.50;99.90;;;;;;5078064;28;20051;-87
2022/01/31 01:17:43;;;;;;;0.13;0.13;;;5.00;99.90;;;;;;5078436;28;20043;-86
2022/01/31 01:20:09;;;;;;;0.35;0.28;;;4.50;99.90;;;;;;5078927;28;20043;-87
2022/01/31 01:22:35;;;;;;;0.00;0.00;;;4.50;99.90;;;;;;5078460;28;20079;-87
2022/01/31 01:25:06;;;;;;;1.67;0.85;;;4.50;99.90;;;;;;5078138;28;20082;-87
2022/01/31 01:27:32;;;;;;;0.28;0.00;;;4.60;99.90;;;;;;5078006;28;20101;-86
2022/01/31 01:29:57;;;;;;;0.13;0.13;;;4.50;99.90;;;;;;5077486;28;20056;-87
2022/01/31 01:32:26;;;;;;;0.38;0.32;;;4.60;99.90;;;;;;5094674;28;20392;-87
2022/01/31 01:34:53;;;;;;;1.50;0.20;;;4.50;99.90;;;;;;5095430;28;20044;-87
2022/01/31 01:37:19;;;;;;;5.15;1.17;;;4.70;99.90;;;;;;5077778;28;20052;-87
2022/01/31 01:39:46;;;;;;;4.85;0.52;;;4.40;99.90;;;;;;5077543;28;20040;-87
2022/01/31 01:42:12;;;;;;;0.00;0.00;;;4.40;99.90;;;;;;5094203;28;20483;-87
2022/01/31 01:44:45;;;;;;;0.10;0.10;;;4.40;99.90;;;;;;5077672;28;20044;-86
2022/01/31 01:47:11;;;;;;;0.00;0.00;;;4.40;99.90;;;;;;5077161;28;20135;-86
2022/01/31 01:49:37;;;;;;;0.00;0.00;;;4.30;99.90;;;;;;5094501;28;20052;-86
2022/01/31 01:52:03;;;;;;;0.05;0.05;;;4.20;99.90;;;;;;5077575;28;20040;-86
2022/01/31 01:54:29;;;;;;;1.45;0.90;;;4.20;99.90;;;;;;5094377;28;20507;-86
2022/01/31 01:56:58;;;;;;;0.10;0.10;;;4.10;99.90;;;;;;5094811;28;20051;-88
2022/01/31 01:59:23;;;;;;;0.00;0.00;;;4.00;99.90;;;;;;5096138;28;20139;-88
2022/01/31 02:01:49;;;;;;;0.00;0.00;;;4.00;99.90;;;;;;5094775;28;20087;-87
2022/01/31 02:04:15;;;;;;;0.13;0.13;;;3.90;99.90;;;;;;5077802;28;20090;-87
2022/01/31 02:06:41;;;;;;;1.08;0.20;;;3.90;99.90;;;;;;5076889;28;20384;-87
2022/01/31 02:09:06;;;;;;;2.17;0.38;;;3.80;99.90;;;;;;5096063;28;20506;-92
2022/01/31 02:11:32;;;;;;;0.28;0.17;;;3.80;99.90;;;;;;5094935;28;20044;-91
2022/01/31 02:13:58;;;;;;;3.60;1.00;;;3.80;99.90;;;;;;5094807;28;20044;-92
2022/01/31 02:16:23;;;;;;;0.65;0.20;;;3.80;99.90;;;;;;5077455;28;20040;-91
2022/01/31 02:18:52;;;;;;;0.00;0.00;;;3.80;99.90;;;;;;5094322;28;20055;-90
2022/01/31 02:21:18;;;;;;;0.00;0.00;;;3.80;99.90;;;;;;5094542;28;20040;-91
2022/01/31 02:23:44;;;;;;;2.38;0.75;;;3.80;99.90;;;;;;5094313;28;20044;-90
2022/01/31 02:26:10;;;;;;;0.08;0.08;;;3.80;99.90;;;;;;5094575;28;20395;-90
2022/01/31 02:28:39;;;;;;;0.00;0.00;;;3.80;99.90;;;;;;5076578;28;20059;-90
2022/01/31 02:31:05;;;;;;;0.30;0.30;;;3.80;99.90;;;;;;5094512;28;20051;-90
2022/01/31 02:33:31;;;;;;;0.00;0.00;;;3.80;99.90;;;;;;5094025;28;20197;-90
2022/01/31 02:35:59;;;;;;;0.30;0.00;;;3.80;99.90;;;;;;5093790;28;20574;-90
2022/01/31 02:38:26;;;;;;;0.00;0.00;;;3.80;99.90;;;;;;5076868;28;20048;-89
2022/01/31 02:40:52;;;;;;;0.32;0.32;;;3.60;99.90;;;;;;5093634;28;20044;-89
2022/01/31 02:43:26;;;;;;;0.20;0.20;;;3.90;99.90;;;;;;5076792;28;20048;-90
2022/01/31 02:45:52;;;;;;;0.43;0.43;;;3.80;99.90;;;;;;5094143;28;20040;-90
2022/01/31 02:48:21;;;;;;;22.85;1.15;;;4.00;99.90;;;;;;5093683;28;20040;-90
2022/01/31 02:50:47;;;;;;;0.10;0.10;;;3.80;99.90;;;;;;5093568;28;20040;-90
2022/01/31 02:53:22;;;;;;;0.00;0.00;;;3.80;99.90;;;;;;5076828;28;20062;-89
2022/01/31 02:55:48;;;;;;;0.00;0.00;;;3.70;99.90;;;;;;5093608;28;20127;-90
2022/01/31 02:58:15;;;;;;;0.00;0.00;;;3.80;99.90;;;;;;5093232;28;20050;-90
2022/01/31 03:00:41;;;;;;;0.00;0.00;;;4.00;99.90;;;;;;5093648;28;20471;-92
2022/01/31 03:03:07;;;;;;;0.30;0.30;;;3.80;99.90;;;;;;5093358;28;20044;-92
2022/01/31 03:05:33;;;;;;;1.20;0.52;;;3.60;99.90;;;;;;5093537;28;20036;-89
2022/01/31 03:08:01;;;;;;;0.00;0.00;;;5.00;99.90;;;;;;5093010;28;20452;-90
2022/01/31 03:10:27;;;;;;;0.00;0.00;;;4.10;99.90;;;;;;5076574;28;20047;-90
2022/01/31 03:12:53;;;;;;;0.00;0.00;;;3.70;99.90;;;;;;5093475;28;20036;-90
2022/01/31 03:15:19;;;;;;;0.17;0.15;;;3.70;99.90;;;;;;5093186;28;20044;-89
2022/01/31 03:17:48;;;;;;;0.00;0.00;;;3.70;99.90;;;;;;5076272;28;20051;-91
2022/01/31 03:20:18;;;;;;;0.70;0.10;;;4.00;99.90;;;;;;5076417;28;20048;-90
2022/01/31 03:22:44;;;;;;;0.10;0.10;;;3.60;99.90;;;;;;5076780;28;20056;-90
2022/01/31 03:25:10;;;;;;;0.03;0.03;;;3.60;99.90;;;;;;5076304;28;20185;-89
2022/01/31 03:27:36;;;;;;;0.20;0.20;;;4.10;99.90;;;;;;5075788;28;20036;-88
2022/01/31 03:30:04;;;;;;;0.00;0.00;;;3.90;99.90;;;;;;5075657;28;20059;-88
2022/01/31 03:32:30;;;;;;;0.10;0.10;;;3.60;99.90;;;;;;5075989;28;20041;-88
2022/01/31 03:34:56;;;;;;;0.10;0.10;;;3.60;99.90;;;;;;5092789;28;20044;-89
2022/01/31 03:37:22;;;;;;;0.10;0.00;;;3.70;99.90;;;;;;5075733;28;20146;-89
2022/01/31 03:39:48;;;;;;;4.63;0.88;;;3.70;99.90;;;;;;5075903;28;20071;-89
2022/01/31 03:42:18;;;;;;;0.17;0.17;;;3.70;99.90;;;;;;5092425;28;20067;-89
2022/01/31 03:44:47;;;;;;;0.35;0.17;;;3.70;99.90;;;;;;5075424;28;20039;-88
2022/01/31 03:47:16;;;;;;;0.00;0.00;;;3.80;99.90;;;;;;5092397;28;20433;-88
2022/01/31 03:49:42;;;;;;;0.00;0.00;;;3.80;99.90;;;;;;5075761;28;20079;-88
2022/01/31 03:52:08;;;;;;;0.60;0.30;;;3.90;99.90;;;;;;5092460;28;20089;-88
2022/01/31 03:54:34;;;;;;;0.05;0.00;;;3.90;99.90;;;;;;5075645;28;20048;-88
2022/01/31 03:57:02;;;;;;;0.00;0.00;;;3.90;99.90;;;;;;5074974;28;20059;-88
2022/01/31 03:59:28;;;;;;;0.00;0.00;;;4.00;99.90;;;;;;5075144;28;20048;-87
2022/01/31 04:01:54;;;;;;;0.05;0.00;;;4.30;99.90;;;;;;5092450;28;20040;-87
2022/01/31 04:04:20;;;;;;;0.63;0.00;;;4.10;99.90;;;;;;5075376;28;20507;-87
2022/01/31 04:06:45;;;;;;;0.05;0.05;;;4.20;99.90;;;;;;5075199;28;20040;-87
2022/01/31 04:09:11;;;;;;;0.00;0.00;;;4.40;99.90;;;;;;5076023;28;20047;-87
2022/01/31 04:11:37;;;;;;;0.00;0.00;;;4.40;99.90;;;;;;5092316;28;20044;-87
2022/01/31 04:14:02;;;;;;;0.00;0.00;;;4.40;99.90;;;;;;5075739;28;20169;-86
2022/01/31 04:16:28;;;;;;;0.00;0.00;;;4.40;99.90;;;;;;5075272;28;20044;-87
2022/01/31 04:18:54;;;;;;;0.00;0.00;;;4.50;99.90;;;;;;5091636;28;20526;-86
2022/01/31 04:21:21;;;;;;;0.00;0.00;;;4.60;99.90;;;;;;5092208;28;20044;-87
2022/01/31 04:23:47;;;;;;;0.45;0.10;;;4.60;99.90;;;;;;5092575;28;20480;-87
2022/01/31 04:26:15;;;;;;;0.10;0.05;;;5.00;99.90;;;;;;5095467;28;20044;-86
2022/01/31 04:28:44;;;;;;;0.00;0.00;;;4.70;99.90;;;;;;5078645;28;20092;-86
2022/01/31 04:33:47;;;;;;;0.00;0.00;;;5.00;99.90;;;;;;5095651;28;20135;-85
2022/01/31 04:36:16;;;;;;;0.00;0.00;;;4.80;99.90;;;;;;5095677;28;20044;-86
2022/01/31 04:38:46;;;;;;;0.08;0.08;;;5.00;99.90;;;;;;5095272;28;20047;-86
2022/01/31 04:41:12;;;;;;;0.00;0.00;;;4.90;99.90;;;;;;5079022;28;20055;-86
2022/01/31 04:43:38;;;;;;;0.40;0.40;;;4.90;99.90;;;;;;5095522;28;20071;-86
2022/01/31 04:46:06;;;;;;;0.00;0.00;;;5.20;99.90;;;;;;5095342;28;20075;-85
2022/01/31 04:48:33;;;;;;;0.30;0.10;;;5.00;99.90;;;;;;5095212;28;20158;-86
2022/01/31 04:50:58;;;;;;;7.18;0.85;;;5.10;99.90;;;;;;5078673;28;20134;-85
2022/01/31 04:53:24;;;;;;;0.00;0.00;;;5.10;99.90;;;;;;5095299;28;20102;-86
2022/01/31 04:55:50;;;;;;;0.00;0.00;;;5.10;99.90;;;;;;5078292;28;20052;-85
2022/01/31 04:58:16;;;;;;;0.08;0.05;;;5.90;99.90;;;;;;5078328;28;20044;-85
2022/01/31 05:00:42;;;;;;;0.00;0.00;;;5.20;99.90;;;;;;5094807;28;20047;-85
2022/01/31 05:03:14;;;;;;;3.63;0.75;;;5.10;99.90;;;;;;5078079;28;20040;-85
2022/01/31 05:05:41;;;;;;;0.08;0.08;;;5.40;99.90;;;;;;5094981;28;20518;-85
2022/01/31 05:08:07;;;;;;;1.02;0.25;;;5.20;99.90;;;;;;5078146;28;20135;-85
2022/01/31 05:10:34;;;;;;;0.00;0.00;;;6.40;99.90;;;;;;5078224;28;20403;-85
2022/01/31 05:13:00;;;;;;;0.00;0.00;;;5.20;99.90;;;;;;5078305;28;20558;-85
2022/01/31 05:15:27;;;;;;;0.15;0.15;;;6.10;99.90;;;;;;5077900;28;20078;-85
2022/01/31 05:17:52;;;;;;;0.00;0.00;;;5.20;99.90;;;;;;5077864;28;20087;-85
2022/01/31 05:20:18;;;;;;;0.35;0.13;;;5.30;99.90;;;;;;5078534;28;20112;-85
2022/01/31 05:22:44;;;;;;;0.00;0.00;;;5.30;99.90;;;;;;5094719;28;20052;-85
2022/01/31 05:25:10;;;;;;;2.05;1.40;;;5.20;99.90;;;;;;5094663;28;20134;-85
2022/01/31 05:27:36;;;;;;;0.00;0.00;;;5.30;99.90;;;;;;5077419;28;20356;-85
2022/01/31 05:30:03;;;;;;;0.00;0.00;;;5.20;99.90;;;;;;5077166;28;20048;-86
2022/01/31 05:32:29;;;;;;;0.77;0.50;;;5.10;99.90;;;;;;5094526;28;20521;-85
2022/01/31 05:34:55;;;;;;;0.00;0.00;;;5.30;99.90;;;;;;5077468;28;20057;-86
2022/01/31 05:37:20;;;;;;;0.80;0.38;;;5.00;99.90;;;;;;5093803;28;20387;-87
2022/01/31 05:39:46;;;;;;;0.00;0.00;;;5.40;99.90;;;;;;5094186;28;20044;-86
2022/01/31 05:42:13;;;;;;;0.00;0.00;;;4.90;99.90;;;;;;5094440;28;20083;-86
2022/01/31 05:44:39;;;;;;;0.10;0.10;;;4.90;99.90;;;;;;5094231;28;20043;-86
2022/01/31 05:47:05;;;;;;;0.75;0.03;;;4.90;99.90;;;;;;5094282;28;20036;-88
2022/01/31 05:49:32;;;;;;;0.03;0.03;;;5.00;99.90;;;;;;5077446;28;20036;-89
2022/01/31 05:52:04;;;;;;;0.00;0.00;;;5.00;99.90;;;;;;5077786;28;20051;-89
2022/01/31 05:54:30;;;;;;;0.00;0.00;;;5.10;99.90;;;;;;5077775;28;20048;-90
2022/01/31 05:56:56;;;;;;;0.00;0.00;;;4.90;99.90;;;;;;5077820;28;20063;-90
2022/01/31 05:59:22;;;;;;;0.00;0.00;;;5.30;99.90;;;;;;5077510;28;20392;-90
2022/01/31 06:01:48;;;;;;;0.00;0.00;;;4.80;99.90;;;;;;5077186;28;20093;-88
2022/01/31 06:04:14;;;;;;;0.00;0.00;;;4.80;99.90;;;;;;5094143;28;20075;-89
2022/01/31 06:06:40;;;;;;;0.00;0.00;;;4.90;99.90;;;;;;5094272;28;20122;-89
2022/01/31 06:09:06;;;;;;;1.98;0.75;;;4.90;99.90;;;;;;5077084;28;20502;-90
2022/01/31 06:11:34;;;;;;;0.00;0.00;;;4.70;99.90;;;;;;5077334;28;20155;-90
2022/01/31 06:14:01;;;;;;;0.10;0.10;;;5.50;99.90;;;;;;5094375;28;20048;-90
2022/01/31 06:16:28;;;;;;;0.00;0.00;;;4.90;99.90;;;;;;5077050;28;20090;-89
2022/01/31 06:18:54;;;;;;;0.03;0.03;;;5.10;99.90;;;;;;5077127;28;20062;-89
2022/01/31 06:21:20;;;;;;;0.00;0.00;;;4.50;99.90;;;;;;5093870;28;20044;-89
2022/01/31 06:23:46;;;;;;;0.00;0.00;;;4.70;99.90;;;;;;5093743;28;20040;-88
2022/01/31 06:26:12;;;;;;;0.00;0.00;;;4.80;99.90;;;;;;5093269;28;20071;-89
2022/01/31 06:28:38;;;;;;;0.00;0.00;;;4.70;99.90;;;;;;5076594;28;20091;-89
2022/01/31 06:31:03;;;;;;;0.00;0.00;;;5.50;99.90;;;;;;5076855;28;20459;-89
2022/01/31 06:33:29;;;;;;;0.22;0.22;;;4.70;99.90;;;;;;5077107;28;20507;-89
2022/01/31 06:35:55;;;;;;;0.00;0.00;;;4.70;99.90;;;;;;5093665;28;20058;-89
2022/01/31 06:38:22;;;;;;;0.00;0.00;;;4.80;99.90;;;;;;5093672;28;20040;-88
2022/01/31 06:40:49;;;;;;;0.20;0.20;;;4.70;99.90;;;;;;5076531;28;20112;-89
2022/01/31 06:43:15;;;;;;;0.00;0.00;;;5.00;99.90;;;;;;5076768;28;20051;-88
2022/01/31 06:45:40;;;;;;;0.00;0.00;;;4.80;99.90;;;;;;5076619;28;20048;-89
2022/01/31 06:48:06;;;;;;;0.00;0.00;;;4.70;99.90;;;;;;5076142;28;20144;-89
2022/01/31 06:50:33;;;;;;;0.00;0.00;;;5.00;99.90;;;;;;5076695;28;20040;-89
2022/01/31 06:53:01;;;;;;;0.00;0.00;;;4.80;99.90;;;;;;5076718;28;20036;-89
2022/01/31 06:55:28;;;;;;;0.03;0.03;;;5.10;99.90;;;;;;5076404;28;20043;-88
2022/01/31 06:57:54;;;;;;;0.00;0.00;;;4.90;99.90;;;;;;5076641;28;20488;-90
2022/01/31 07:00:21;;;;;;;0.00;0.00;;;4.90;99.90;;;;;;5076416;28;20097;-88
2022/01/31 07:02:48;;;;;;;0.00;0.00;;;4.90;99.90;;;;;;5093671;28;20424;-89
2022/01/31 07:05:14;;;;;;;0.55;0.30;;;4.90;99.90;;;;;;5093357;28;20476;-89
2022/01/31 07:07:40;;;;;;;0.00;0.00;;;4.90;99.90;;;;;;5093010;28;20043;-89
2022/01/31 07:10:07;;;;;;;0.00;0.00;;;4.90;99.90;;;;;;5092993;28;20384;-88
2022/01/31 07:12:37;;;;;;;0.00;0.00;;;4.90;99.90;;;;;;5076430;28;20055;-89
2022/01/31 07:15:09;;;;;;;0.00;0.00;;;5.00;99.90;;;;;;5093193;28;20044;-89
2022/01/31 07:17:36;;;;;;;0.00;0.00;;;5.00;99.90;;;;;;5093747;28;20173;-90
2022/01/31 07:20:05;;;;;;;0.00;0.00;;;5.00;99.90;;;;;;5076300;28;20048;-89
2022/01/31 07:22:36;;;;;;;0.00;0.00;;;5.00;99.90;;;;;;5076333;28;20403;-89
2022/01/31 07:25:07;;;;;;;0.00;0.00;;;5.00;99.90;;;;;;5093753;28;20052;-89
2022/01/31 07:27:33;;;;;;;0.00;0.00;;;5.00;99.90;;;;;;5076395;28;20040;-90
2022/01/31 07:29:59;;;;;;;0.00;0.00;;;5.00;99.90;;;;;;5093084;28;20056;-91
2022/01/31 07:32:25;;;;;;;0.00;0.00;;;5.10;99.90;;;;;;5103200;28;20183;-88
2022/01/31 07:34:55;;;;;;;0.00;0.00;;;5.00;99.90;;;;;;5091579;28;20503;-92
2022/01/31 07:37:22;;;;;;;0.00;0.00;;;5.00;99.90;;;;;;5095337;28;20035;-89
2022/01/31 07:39:48;;;;;;;0.00;0.00;;;5.00;99.90;;;;;;5095205;28;20483;-92
2022/01/31 07:42:23;;;;;;;0.00;0.00;;;4.90;99.90;;;;;;5112562;28;20039;-96
2022/01/31 07:44:49;;;;;;;0.00;0.00;;;4.90;99.90;;;;;;5097291;28;20043;-93
2022/01/31 07:47:15;;;;;;;0.00;0.00;;;6.20;99.90;;;;;;5095163;28;20032;-95
2022/01/31 07:49:41;;;;;;;0.00;0.00;;;4.90;99.90;;;;;;5095398;28;20047;-92
2022/01/31 07:52:09;;;;;;;0.17;0.15;;;5.00;99.90;;;;;;5095788;28;20588;-91
2022/01/31 07:54:35;;;;;;;9.85;0.38;;;4.90;99.90;;;;;;5096182;28;20036;-96
2022/01/31 07:57:07;;;;;;;0.00;0.00;;;4.90;99.90;;;;;;5096154;28;20597;-95
2022/01/31 07:59:41;;;;;;;0.00;0.00;;;5.00;99.90;;;;;;5097265;28;20419;-96
2022/01/31 08:02:16;;;;;;;0.00;0.00;;;5.00;99.90;;;;;;5100714;28;20047;-92
2022/01/31 08:04:44;;;;;;;0.00;0.00;;;5.00;99.90;;;;;;5113792;28;20055;-92
2022/01/31 08:07:10;;;;;;;0.00;0.00;;;5.00;99.90;;;;;;5096442;28;20048;-92
2022/01/31 08:09:36;;;;;;;0.38;0.38;;;5.00;99.90;;;;;;5116493;28;20040;-96
2022/01/31 08:12:03;;;;;;;0.00;0.00;;;5.00;99.90;;;;;;5099104;28;20066;-90
2022/01/31 08:14:32;;;;;;;0.30;0.30;;;5.10;99.90;;;;;;5099253;28;20085;-89
2022/01/31 08:16:59;;;;;;;0.00;0.00;;;5.10;99.90;;;;;;5108336;28;20143;-92
2022/01/31 08:19:26;;;;;;;0.35;0.35;;;5.10;99.90;;;;;;5098599;28;20490;-94
2022/01/31 08:21:54;;;;;;;0.00;0.00;;;5.30;99.90;;;;;;5099586;28;20173;-92
2022/01/31 08:24:19;;;;;;;0.00;0.00;;;5.10;99.90;;;;;;5098146;28;20085;-94
2022/01/31 08:26:45;;;;;;;0.00;0.00;;;5.10;99.90;;;;;;5098695;28;20044;-94
2022/01/31 08:29:25;;;;;;;0.00;0.00;;;5.20;99.90;;;;;;5113721;28;20052;-89
2022/01/31 08:31:53;;;;;;;0.00;0.00;;;5.20;99.90;;;;;;5111350;28;20078;-88
2022/01/31 08:35:47;;;;;;;0.00;0.00;;;5.90;99.90;;;;;;5096738;28;20475;-84
2022/01/31 08:37:05;;;;;;;0.10;0.10;;;5.40;99.90;;;;;;5113790;28;20483;-90
2022/01/31 08:39:31;;;;;;;0.00;0.00;;;5.50;99.90;;;;;;5113903;28;20083;-88
2022/01/31 08:41:57;;;;;;;0.00;0.00;;;5.50;99.90;;;;;;5114788;28;20445;-86
2022/01/31 08:44:23;;;;;;;0.10;0.10;;;5.50;99.90;;;;;;5096948;28;20479;-87
2022/01/31 08:46:50;;;;;;;0.00;0.00;;;5.60;99.90;;;;;;5113815;28;20046;-86
2022/01/31 08:49:17;;;;;;;0.00;0.00;;;6.40;99.90;;;;;;5097412;28;20050;-88
2022/01/31 08:51:44;;;;;;;0.00;0.00;;;5.80;99.90;;;;;;5096525;28;20036;-88
2022/01/31 08:54:11;;;;;;;0.00;0.00;;;5.70;99.90;;;;;;5113667;28;20501;-89
2022/01/31 08:56:44;;;;;;;0.00;0.00;;;5.80;99.90;;;;;;5099464;28;20040;-88
2022/01/31 08:59:16;;;;;;;0.63;0.28;;;6.10;99.90;;;;;;5098518;28;20624;-88
2022/01/31 09:01:43;;;;;;;0.00;0.00;;;5.90;99.90;;;;;;5098395;28;20126;-89
2022/01/31 09:04:12;;;;;;;0.80;0.43;;;5.80;99.90;;;;;;5097873;28;20062;-89
2022/01/31 09:06:38;;;;;;;0.00;0.00;;;6.10;99.90;;;;;;5097918;28;20052;-88
2022/01/31 09:09:08;;;;;;;0.00;0.00;;;6.20;99.90;;;;;;5098444;28;20396;-88
2022/01/31 09:11:36;;;;;;;0.65;0.40;;;6.00;99.90;;;;;;5115161;28;20043;-88
2022/01/31 09:14:03;;;;;;;0.08;0.05;;;6.00;99.90;;;;;;5115317;28;20089;-88
2022/01/31 09:16:29;;;;;;;0.00;0.00;;;6.10;99.90;;;;;;5115147;28;20561;-88
2022/01/31 09:18:54;;;;;;;0.00;0.00;;;6.30;99.90;;;;;;5097974;28;20074;-86
2022/01/31 09:21:20;;;;;;;0.00;0.00;;;6.10;99.90;;;;;;5114379;28;20055;-87
2022/01/31 09:23:51;;;;;;;0.00;0.00;;;6.00;99.90;;;;;;5114356;28;20054;-89
2022/01/31 09:26:21;;;;;;;0.75;0.00;;;6.30;99.90;;;;;;5098059;28;20047;-91
2022/01/31 09:28:52;;;;;;;0.00;0.00;;;6.20;99.90;;;;;;5115153;28;20059;-90
2022/01/31 09:31:19;;;;;;;0.00;0.00;;;6.80;99.90;;;;;;5115168;28;20109;-88
2022/01/31 09:33:45;;;;;;;0.00;0.00;;;7.10;99.90;;;;;;5114900;28;20047;-88
2022/01/31 09:36:11;;;;;;;0.05;0.05;;;7.00;99.90;;;;;;5097857;28;20044;-87
2022/01/31 09:38:36;;;;;;;0.00;0.00;;;7.70;99.90;;;;;;5097650;28;20047;-88
2022/01/31 09:41:02;;;;;;;0.00;0.00;;;6.80;99.90;;;;;;5097587;28;20131;-87
2022/01/31 09:43:56;;;;;;;0.00;0.00;;;6.70;99.90;;;;;;5097395;28;20062;-87
2022/01/31 09:48:44;;;;;;;0.10;0.10;;;6.60;99.90;;;;;;5114609;28;20052;-87
2022/01/31 09:51:16;;;;;;;0.00;0.00;;;6.90;99.90;;;;;;5097477;28;20134;-86
2022/01/31 09:53:47;;;;;;;0.00;0.00;;;6.80;99.90;;;;;;5114478;28;20387;-87
2022/01/31 09:56:22;;;;;;;0.00;0.00;;;7.20;99.90;;;;;;5097432;28;20048;-86
2022/01/31 09:58:49;;;;;;;0.00;0.00;;;7.50;99.90;;;;;;5114423;28;20364;-86
2022/01/31 10:01:20;;;;;;;0.00;0.00;;;8.60;99.90;;;;;;5097631;28;20039;-86
2022/01/31 10:03:52;;;;;;;0.00;0.00;;;9.20;99.90;;;;;;5097415;28;20132;-86
2022/01/31 10:06:25;;;;;;;0.00;0.00;;;9.30;99.90;;;;;;5097512;28;20079;-86
2022/01/31 10:09:03;;;;;;;0.00;0.00;;;9.70;99.90;;;;;;5114277;28;20047;-86
2022/01/31 10:11:37;;;;;;;0.00;0.00;;;9.30;99.90;;;;;;5098057;28;20051;-86
2022/01/31 10:17:00;;;;;;;0.03;0.03;;;8.60;99.90;;;;;;5114070;28;20293;-86
2022/01/31 10:19:36;;;;;;;0.00;0.00;;;8.30;99.90;;;;;;5097056;28;20391;-86
2022/01/31 10:22:11;;;;;;;0.00;0.00;;;8.00;99.90;;;;;;5114089;28;20047;-87
2022/01/31 10:24:39;;;;;;;0.00;0.00;;;7.70;99.90;;;;;;5114054;28;20498;-86
2022/01/31 10:27:16;;;;;;;1.88;0.45;;;8.00;99.90;;;;;;5096695;28;20078;-87
2022/01/31 10:29:43;;;;;;;0.00;0.00;;;7.40;99.90;;;;;;5096403;28;20077;-86
2022/01/31 10:32:12;;;;;;;0.00;0.00;;;7.30;99.90;;;;;;5097287;28;20097;-86
2022/01/31 10:35:00;;;;;;;0.20;0.20;;;7.20;99.90;;;;;;5096744;28;20076;-86
2022/01/31 10:37:29;;;;;;;0.77;0.20;;;7.20;99.90;;;;;;5097003;28;20085;-86
2022/01/31 10:45:48;;;;;;;0.00;0.00;;;7.30;99.90;;;;;;5113453;28;20437;-87
2022/01/31 10:51:56;;;;;;;0.00;0.00;;;7.20;99.90;;;;;;5114075;28;19923;-86
2022/01/31 10:57:05;;;;;;;0.00;0.00;;;7.90;99.90;;;;;;5113430;28;20058;-86
2022/01/31 10:59:33;;;;;;;0.00;0.00;;;8.70;99.90;;;;;;5113598;28;20089;-86
2022/01/31 11:02:01;;;;;;;0.00;0.00;;;8.90;99.90;;;;;;5113833;28;20074;-87
2022/01/31 11:04:32;;;;;;;0.00;0.00;;;9.20;99.90;;;;;;5113325;28;20132;-87
2022/01/31 11:07:04;;;;;;;0.00;0.00;;;9.00;99.90;;;;;;5096178;28;20128;-87
2022/01/31 11:09:31;;;;;;;0.00;0.00;;;8.70;99.90;;;;;;5113171;28;20055;-86
2022/01/31 11:11:59;;;;;;;0.00;0.00;;;8.70;99.90;;;;;;5113458;28;20051;-86
2022/01/31 11:14:26;;;;;;;1.73;1.00;;;8.60;99.90;;;;;;5096448;28;20048;-87
2022/01/31 11:16:54;;;;;;;0.00;0.00;;;8.50;99.90;;;;;;5112824;28;20050;-87
2022/01/31 11:19:29;;;;;;;0.00;0.00;;;8.40;99.90;;;;;;5096189;28;20104;-85
2022/01/31 11:21:59;;;;;;;;;;;8.20;99.90;;;;;;5112843;28;20054;-86
2022/01/31 11:24:30;;;;;;;0.15;0.15;;;8.60;99.90;;;;;;5113144;28;19963;-86
2022/01/31 11:27:14;;;;;;;0.00;0.00;;;9.50;99.90;;;;;;5096589;28;20043;-86
2022/01/31 11:29:43;;;;;;;0.00;0.00;;;10.60;99.90;;;;;;5095861;28;20128;-86
2022/01/31 11:32:10;;;;;;;0.00;0.00;;;11.50;99.90;;;;;;5095728;28;20055;-87
2022/01/31 11:34:40;;;;;;;0.00;0.00;;;11.90;99.90;;;;;;5114646;28;20105;-86
2022/01/31 11:37:12;;;;;;;0.35;0.35;;;12.30;99.90;;;;;;5100214;28;20439;-86
2022/01/31 11:39:41;;;;;;;0.00;0.00;;;12.70;99.90;;;;;;5100070;28;20083;-86
2022/01/31 11:42:08;;;;;;;0.00;0.00;;;13.20;99.90;;;;;;5117395;28;20081;-87
2022/01/31 11:44:40;;;;;;;0.00;0.00;;;13.40;99.90;;;;;;5117121;28;20134;-87
2022/01/31 11:47:07;;;;;;;0.80;0.80;;;13.40;99.10;;;;;;5099861;28;20040;-87
2022/01/31 11:49:50;;;;;;;0.00;0.00;;;13.60;97.70;;;;;;5116930;28;20057;-87
2022/01/31 11:52:17;;;;;;;0.00;0.00;;;13.60;97.90;;;;;;5117160;28;20043;-86
2022/01/31 11:54:55;;;;;;;0.00;0.00;;;13.90;96.90;;;;;;5116546;28;20040;-86
2022/01/31 11:57:23;;;;;;;0.05;0.05;;;14.00;95.30;;;;;;5099820;28;20048;-86
2022/01/31 11:59:55;;;;;;;0.00;0.00;;;14.10;93.40;;;;;;5116983;28;20130;-86
2022/01/31 12:02:23;;;;;;;0.00;0.00;;;14.30;93.60;;;;;;5099845;28;20104;-86
2022/01/31 12:04:50;;;;;;;0.00;0.00;;;13.60;93.60;;;;;;5116702;28;20051;-87
2022/01/31 12:07:39;;;;;;;0.15;0.15;;;13.70;96.60;;;;;;5116445;28;20040;-87
2022/01/31 12:10:19;;;;;;;0.00;0.00;;;13.10;99.90;;;;;;5116877;28;20040;-88
2022/01/31 12:12:58;;;;;;;0.00;0.00;;;12.60;99.90;;;;;;5117170;28;20043;-86
2022/01/31 12:18:32;;;;;;;0.00;0.00;;;11.00;99.90;;;;;;5116095;28;20051;-87
2022/01/31 12:24:20;;;;;;;0.00;0.00;;;10.80;99.90;;;;;;5116512;28;20497;-86
2022/01/31 12:26:52;;;;;;;0.00;0.00;;;10.90;99.90;;;;;;5098673;28;20166;-86
2022/01/31 12:29:40;;;;;;;0.38;0.38;;;10.50;99.90;;;;;;5115784;28;20090;-86
2022/01/31 12:32:36;;;;;;;0.70;0.28;;;10.30;99.90;;;;;;5099515;28;20395;-87
2022/01/31 12:35:07;;;;;;;0.08;0.00;;;10.10;99.90;;;;;;5116076;28;20101;-86
2022/01/31 12:37:38;;;;;;;1.80;0.15;;;10.30;99.90;;;;;;5115760;28;20035;-86
2022/01/31 12:40:29;;;;;;;0.00;0.00;;;10.60;99.90;;;;;;5098996;28;20080;-86
2022/01/31 12:45:43;;;;;;;0.00;0.00;;;10.90;99.90;;;;;;5115085;28;20506;-86
2022/01/31 12:48:08;;;;;;;0.00;0.00;;;10.60;99.90;;;;;;5099112;28;20040;-85
2022/01/31 12:50:35;;;;;;;0.15;0.15;;;10.40;99.90;;;;;;5098966;28;20054;-86
2022/01/31 12:53:05;;;;;;;0.00;0.00;;;10.20;99.90;;;;;;5115630;28;20506;-86
2022/01/31 12:55:39;;;;;;;0.85;0.43;;;9.80;99.90;;;;;;5115665;28;20422;-85
2022/01/31 12:58:05;;;;;;;0.20;0.20;;;9.60;99.90;;;;;;5099463;28;20509;-86
2022/01/31 13:00:43;;;;;;;0.00;0.00;;;9.50;99.90;;;;;;5098730;28;20051;-86
2022/01/31 13:03:10;;;;;;;0.00;0.00;;;9.30;99.90;;;;;;5115942;28;20050;-86
2022/01/31 13:05:38;;;;;;;0.00;0.00;;;9.20;99.90;;;;;;5115419;28;20079;-86
2022/01/31 13:08:23;;;;;;;0.03;0.03;;;9.00;99.90;;;;;;5114904;28;20126;-85
2022/01/31 13:10:51;;;;;;;0.00;0.00;;;9.00;99.90;;;;;;5115893;28;20062;-86
2022/01/31 13:13:35;;;;;;;0.00;0.00;;;8.90;99.90;;;;;;5098379;28;20552;-86
2022/01/31 13:16:08;;;;;;;0.10;0.10;;;8.90;99.90;;;;;;5098435;28;20083;-86
2022/01/31 13:18:34;;;;;;;0.03;0.03;;;8.90;99.90;;;;;;5098285;28;20047;-85
2022/01/31 13:21:03;;;;;;;0.00;0.00;;;9.10;99.90;;;;;;5114738;28;20055;-86
2022/01/31 13:23:32;;;;;;;0.88;0.38;;;9.00;99.90;;;;;;5115704;28;20097;-86
2022/01/31 13:26:06;;;;;;;0.00;0.00;;;8.90;99.90;;;;;;5098055;28;20064;-86
2022/01/31 13:28:33;;;;;;;0.65;0.47;;;8.80;99.90;;;;;;5115080;28;20122;-86
2022/01/31 13:31:06;;;;;;;11.50;0.70;;;9.10;99.90;;;;;;5115136;28;20365;-86